createdAt,value
2022-12-25T03:07:16.230Z,5.32
2022-12-25T03:10:33.166Z,5.07
2022-12-25T03:13:13.649Z,5.00
2022-12-25T03:15:59.753Z,4.95
2022-12-25T03:18:29.143Z,4.60
2022-12-25T03:21:15.366Z,4.78
2022-12-25T03:24:04.494Z,4.68
2022-12-25T03:26:51.496Z,4.70
2022-12-25T03:29:37.540Z,4.25
2022-12-25T03:32:28.615Z,4.60
2022-12-25T03:35:14.725Z,4.38
2022-12-25T03:38:10.127Z,4.18
2022-12-25T03:41:08.716Z,4.32
2022-12-25T03:44:09.121Z,4.95
2022-12-25T03:47:02.957Z,4.95
2022-12-25T03:49:56.720Z,4.40
2022-12-25T03:52:44.337Z,4.47
2022-12-25T03:55:31.012Z,4.55
2022-12-25T03:58:17.169Z,3.90
2022-12-25T04:01:03.431Z,3.90
2022-12-25T04:03:49.552Z,3.90
2022-12-25T04:06:35.956Z,3.80
2022-12-25T04:09:22.159Z,3.72
2022-12-25T04:12:10.532Z,3.83
2022-12-25T04:14:57.098Z,3.85
2022-12-25T04:17:43.637Z,3.67
2022-12-25T04:20:30.174Z,3.55
2022-12-25T04:23:16.390Z,3.50
2022-12-25T04:26:02.704Z,3.20
2022-12-25T04:28:49.025Z,3.80
2022-12-25T04:31:35.165Z,3.20
2022-12-25T04:34:21.729Z,3.30
2022-12-25T04:36:49.288Z,2.95
2022-12-25T04:39:17.041Z,3.60
2022-12-25T04:41:44.627Z,3.33
2022-12-25T04:44:12.460Z,3.13
2022-12-25T04:46:40.160Z,3.15
2022-12-25T04:49:07.949Z,3.33
2022-12-25T04:51:36.762Z,3.00
2022-12-25T04:54:04.620Z,2.95
2022-12-25T04:56:33.026Z,2.95
2022-12-25T04:59:00.695Z,3.03
2022-12-25T05:01:28.456Z,3.03
2022-12-25T05:03:56.207Z,3.10
2022-12-25T05:06:24.070Z,2.95
2022-12-25T05:08:51.729Z,2.88
2022-12-25T05:11:21.991Z,2.95
2022-12-25T05:13:49.912Z,3.20
2022-12-25T05:16:19.915Z,3.45
2022-12-25T05:18:52.047Z,2.90
2022-12-25T05:21:19.980Z,2.80
2022-12-25T05:23:51.929Z,3.17
2022-12-25T05:26:22.808Z,3.50
2022-12-25T05:28:50.911Z,2.85
2022-12-25T05:31:19.675Z,3.10
2022-12-25T05:33:51.693Z,2.85
2022-12-25T05:36:20.147Z,2.83
2022-12-25T05:38:47.841Z,2.53
2022-12-25T05:41:15.582Z,2.97
2022-12-25T05:43:43.249Z,3.15
2022-12-25T05:46:11.222Z,3.00
2022-12-25T05:48:39.095Z,2.92
2022-12-25T05:51:11.777Z,3.15
2022-12-25T05:53:41.987Z,3.03
2022-12-25T05:56:09.955Z,3.80
2022-12-25T05:58:39.208Z,3.13
2022-12-25T06:01:13.440Z,3.08
2022-12-25T06:03:41.260Z,3.78
2022-12-25T06:06:09.103Z,3.78
2022-12-25T06:08:37.103Z,3.88
2022-12-25T06:11:06.292Z,3.67
2022-12-25T06:13:35.293Z,3.60
2022-12-25T06:16:07.699Z,3.80
2022-12-25T06:18:40.387Z,4.00
2022-12-25T06:21:09.308Z,4.53
2022-12-25T06:23:39.152Z,4.13
2022-12-25T06:26:09.560Z,4.32
2022-12-25T06:28:37.614Z,4.45
2022-12-25T06:31:18.613Z,4.70
2022-12-25T06:33:46.735Z,5.10
2022-12-25T06:36:16.716Z,4.82
2022-12-25T06:38:44.808Z,4.88
2022-12-25T06:41:20.791Z,5.15
2022-12-25T06:43:53.686Z,4.70
2022-12-25T06:46:22.389Z,4.97
2022-12-25T06:48:50.637Z,4.50
2022-12-25T06:51:30.218Z,4.68
2022-12-25T06:53:58.836Z,4.57
2022-12-25T06:56:27.911Z,4.85
2022-12-25T06:58:58.165Z,4.47
2022-12-25T07:01:31.692Z,4.68
2022-12-25T07:04:06.114Z,5.00
2022-12-25T07:06:34.341Z,5.13
2022-12-25T07:09:03.104Z,4.82
2022-12-25T07:11:32.306Z,4.75
2022-12-25T07:14:00.286Z,5.15
2022-12-25T07:16:28.226Z,4.45
2022-12-25T07:18:56.096Z,4.90
2022-12-25T07:21:23.887Z,5.35
2022-12-25T07:23:51.631Z,4.93
2022-12-25T07:26:19.563Z,4.82
2022-12-25T07:28:47.209Z,4.65
2022-12-25T07:31:16.623Z,4.90
2022-12-25T07:33:44.891Z,4.38
2022-12-25T07:36:13.752Z,4.30
2022-12-25T07:38:42.748Z,4.75
2022-12-25T07:41:11.514Z,4.57
2022-12-25T07:43:39.238Z,4.57
2022-12-25T07:46:07.066Z,4.88
2022-12-25T07:48:36.662Z,4.40
2022-12-25T07:51:07.954Z,4.57
2022-12-25T07:53:36.644Z,4.05
2022-12-25T07:56:11.178Z,4.25
2022-12-25T07:58:39.286Z,4.15
2022-12-25T08:01:10.863Z,4.03
2022-12-25T08:03:39.051Z,3.85
2022-12-25T08:06:08.999Z,3.95
2022-12-25T08:08:38.458Z,4.50
2022-12-25T08:11:27.897Z,3.90
2022-12-25T08:13:56.554Z,3.75
2022-12-25T08:16:24.484Z,3.40
2022-12-25T08:18:53.138Z,3.53
2022-12-25T08:21:21.011Z,3.38
2022-12-25T08:23:48.746Z,3.50
2022-12-25T08:26:19.754Z,4.03
2022-12-25T09:19:56.490Z,3.00
2022-12-25T09:22:24.252Z,2.80
2022-12-25T09:24:51.981Z,3.15
2022-12-25T09:27:19.789Z,2.83
2022-12-25T09:29:47.828Z,2.92
2022-12-25T09:32:15.580Z,2.88
2022-12-25T09:34:43.256Z,2.55
2022-12-25T09:37:11.123Z,2.50
2022-12-25T09:39:45.907Z,2.38
2022-12-25T09:42:14.171Z,2.30
2022-12-25T09:44:45.438Z,2.28
2022-12-25T09:47:22.494Z,2.58
2022-12-25T09:50:12.188Z,2.60
2022-12-25T09:52:55.775Z,2.70
2022-12-25T09:55:26.195Z,2.28
2022-12-25T09:57:56.703Z,2.80
2022-12-25T10:00:41.787Z,2.63
2022-12-25T10:03:34.980Z,3.97
2022-12-25T10:06:22.944Z,4.80
2022-12-25T10:09:13.740Z,3.92
2022-12-25T10:12:06.798Z,3.92
2022-12-25T10:14:45.424Z,3.72
2022-12-25T10:17:16.052Z,3.42
2022-12-25T10:19:49.718Z,3.95
2022-12-25T10:22:24.213Z,3.28
2022-12-25T10:24:55.162Z,3.13
2022-12-25T10:27:59.709Z,3.03
2022-12-25T10:30:28.520Z,2.95
2022-12-25T10:32:57.649Z,3.08
2022-12-25T10:35:28.176Z,3.10
2022-12-25T10:38:01.901Z,2.83
2022-12-25T10:40:54.396Z,2.75
2022-12-25T10:45:52.190Z,2.45
2022-12-25T10:48:24.006Z,2.53
2022-12-25T10:50:52.398Z,3.03
2022-12-25T10:53:26.173Z,2.47
2022-12-25T10:55:57.417Z,2.22
2022-12-25T10:58:25.532Z,2.77
2022-12-25T11:01:13.465Z,2.85
2022-12-25T11:03:45.526Z,2.50
2022-12-25T11:06:31.152Z,2.70
2022-12-25T11:09:01.386Z,2.65
2022-12-25T11:11:30.488Z,2.33
2022-12-25T11:14:02.652Z,2.70
2022-12-25T11:16:37.215Z,1.88
2022-12-25T11:19:21.878Z,2.10
2022-12-25T11:21:55.630Z,2.28
2022-12-25T11:24:27.291Z,2.00
2022-12-25T11:26:57.715Z,2.20
2022-12-25T11:29:47.738Z,2.10
2022-12-25T11:32:25.397Z,2.05
2022-12-25T11:34:53.863Z,1.80
2022-12-25T11:37:43.927Z,1.80
2022-12-25T11:40:42.693Z,2.10
2022-12-25T11:43:36.633Z,1.95
2022-12-25T11:46:16.899Z,1.90
2022-12-25T11:48:56.230Z,1.80
2022-12-25T11:51:27.312Z,2.00
2022-12-25T11:53:59.132Z,2.42
2022-12-25T11:56:29.209Z,1.88
2022-12-25T11:59:22.057Z,1.70
2022-12-25T12:02:00.688Z,1.63
2022-12-25T12:04:38.503Z,1.70
2022-12-25T12:07:31.109Z,1.87
2022-12-25T12:10:07.241Z,1.80
2022-12-25T12:12:48.507Z,1.80
2022-12-25T12:15:19.956Z,1.52
2022-12-25T12:17:48.028Z,1.77
2022-12-25T12:20:32.149Z,1.60
2022-12-25T12:23:01.147Z,1.73
2022-12-25T12:25:29.356Z,1.58
2022-12-25T12:28:05.309Z,1.95
2022-12-25T12:30:37.825Z,1.70
2022-12-25T12:33:07.379Z,1.85
2022-12-25T12:35:38.043Z,1.90
2022-12-25T12:38:09.753Z,1.80
2022-12-25T12:40:39.735Z,1.55
2022-12-25T12:43:23.349Z,1.45
2022-12-25T12:46:30.891Z,1.70
2022-12-25T12:49:25.615Z,1.75
2022-12-25T12:52:07.635Z,1.52
2022-12-25T12:54:52.879Z,1.60
2022-12-25T12:57:33.025Z,1.33
2022-12-25T13:00:08.448Z,1.60
2022-12-25T13:02:44.201Z,1.40
2022-12-25T13:05:50.920Z,1.30
2022-12-25T13:08:24.835Z,1.70
2022-12-25T13:11:07.447Z,1.67
2022-12-25T13:13:39.907Z,1.50
2022-12-25T13:16:16.425Z,1.38
2022-12-25T13:18:44.362Z,1.40
2022-12-25T13:21:19.256Z,1.50
2022-12-25T13:23:47.175Z,1.65
2022-12-25T13:26:17.120Z,1.65
2022-12-25T13:28:46.735Z,1.60
2022-12-25T13:31:23.054Z,1.05
2022-12-25T13:33:53.364Z,1.30
2022-12-25T13:36:21.201Z,1.40
2022-12-25T13:38:51.450Z,1.38
2022-12-25T13:41:45.083Z,1.77
2022-12-25T13:44:21.953Z,1.55
2022-12-25T13:46:49.793Z,1.50
2022-12-25T13:49:19.489Z,1.20
2022-12-25T13:51:48.194Z,1.25
2022-12-25T13:54:17.668Z,1.40
2022-12-25T13:56:51.321Z,1.48
2022-12-25T13:59:23.488Z,1.42
2022-12-25T14:04:24.282Z,1.40
2022-12-25T14:06:52.796Z,1.30
2022-12-25T14:09:20.709Z,1.20
2022-12-25T14:11:52.902Z,1.30
2022-12-25T14:14:23.241Z,1.60
2022-12-25T14:16:53.655Z,1.30
2022-12-25T14:19:31.188Z,1.40
2022-12-25T14:22:11.421Z,1.30
2022-12-25T14:24:40.268Z,1.60
2022-12-25T14:27:27.104Z,1.35
2022-12-25T14:29:56.523Z,1.48
2022-12-25T14:32:31.774Z,1.23
2022-12-25T14:35:03.540Z,1.35
2022-12-25T14:37:32.636Z,1.27
2022-12-25T14:40:25.165Z,1.80
2022-12-25T14:43:17.114Z,1.48
2022-12-25T14:45:54.927Z,1.42
2022-12-25T14:48:25.651Z,1.40
2022-12-25T14:50:58.425Z,1.30
2022-12-25T14:53:41.429Z,1.60
2022-12-25T14:56:10.499Z,1.30
2022-12-25T14:58:42.387Z,1.45
2022-12-25T15:01:21.107Z,1.40
2022-12-25T15:03:49.436Z,1.50
2022-12-25T15:06:22.610Z,1.33
2022-12-25T15:09:01.528Z,1.63
2022-12-25T15:11:29.658Z,1.45
2022-12-25T15:13:57.940Z,1.50
2022-12-25T15:16:29.368Z,1.52
2022-12-25T15:18:57.196Z,1.70
2022-12-25T15:21:26.384Z,1.40
2022-12-25T15:23:55.305Z,1.40
2022-12-25T15:26:23.918Z,1.75
2022-12-25T15:28:51.806Z,1.70
2022-12-25T15:31:30.667Z,1.65
2022-12-25T15:34:00.811Z,1.50
2022-12-25T15:36:29.231Z,1.30
2022-12-25T15:38:57.052Z,1.80
2022-12-25T15:41:54.586Z,1.60
2022-12-25T15:44:22.564Z,1.70
2022-12-25T15:46:50.710Z,1.73
2022-12-25T15:49:18.805Z,1.50
2022-12-25T15:51:47.308Z,1.70
2022-12-25T15:54:14.998Z,2.10
2022-12-25T15:56:45.489Z,2.20
2022-12-25T15:59:13.977Z,1.88
2022-12-25T16:01:56.779Z,2.10
2022-12-25T16:04:25.769Z,1.88
2022-12-25T16:06:53.807Z,2.33
2022-12-25T16:09:21.909Z,2.50
2022-12-25T16:11:50.324Z,2.22
2022-12-25T16:14:19.683Z,2.20
2022-12-25T16:16:47.469Z,2.25
2022-12-25T16:19:15.348Z,2.60
2022-12-25T16:21:45.099Z,2.47
2022-12-25T16:24:14.247Z,2.70
2022-12-25T16:26:43.347Z,2.60
2022-12-25T16:29:11.558Z,2.95
2022-12-25T16:31:39.905Z,3.20
2022-12-25T16:34:09.346Z,2.90
2022-12-25T16:36:38.294Z,3.20
2022-12-25T16:39:06.236Z,3.30
2022-12-25T16:41:35.265Z,2.53
2022-12-25T16:44:09.287Z,3.17
2022-12-25T16:46:37.880Z,3.05
2022-12-25T16:49:05.695Z,3.15
2022-12-25T16:51:33.631Z,3.50
2022-12-25T16:54:01.412Z,3.60
2022-12-25T16:56:30.971Z,3.40
2022-12-25T16:59:00.568Z,3.45
2022-12-25T17:01:28.737Z,4.18
2022-12-25T17:04:01.534Z,4.07
2022-12-25T17:06:29.893Z,4.32
2022-12-25T17:08:59.753Z,3.97
2022-12-25T17:11:31.026Z,4.88
2022-12-25T17:14:07.456Z,4.85
2022-12-25T17:16:36.783Z,4.70
2022-12-25T17:19:09.808Z,5.07
2022-12-25T17:21:38.637Z,5.10
2022-12-25T17:24:07.205Z,4.78
2022-12-25T17:26:34.931Z,4.88
2022-12-25T17:29:02.768Z,5.13
2022-12-25T17:31:30.509Z,5.10
2022-12-25T17:34:00.414Z,5.00
2022-12-25T17:36:28.683Z,4.70
2022-12-25T17:38:56.587Z,5.18
2022-12-25T17:41:24.310Z,5.20
2022-12-25T17:43:51.999Z,5.57
2022-12-25T17:46:22.268Z,5.57
2022-12-25T17:48:50.778Z,5.75
2022-12-25T17:51:21.588Z,6.22
2022-12-25T17:53:51.854Z,5.93
2022-12-25T17:56:21.531Z,6.72
2022-12-25T17:58:54.828Z,5.72
2022-12-25T18:01:24.084Z,5.88
2022-12-25T18:03:52.280Z,6.68
2022-12-25T18:06:23.789Z,7.15
2022-12-25T18:08:51.886Z,6.85
2022-12-25T18:11:23.891Z,6.45
2022-12-25T18:13:53.618Z,7.07
2022-12-25T18:16:24.409Z,7.03
2022-12-25T18:18:53.081Z,7.40
2022-12-25T18:21:22.381Z,7.50
2022-12-25T18:23:50.587Z,8.00
2022-12-25T18:26:19.157Z,7.15
2022-12-25T18:28:48.515Z,7.28
2022-12-25T18:31:19.398Z,6.93
2022-12-25T18:33:47.699Z,7.50
2022-12-25T18:36:17.209Z,7.57
2022-12-25T18:38:46.747Z,7.82
2022-12-25T18:41:14.795Z,7.90
2022-12-25T18:43:54.238Z,8.50
2022-12-25T18:46:27.745Z,8.70
2022-12-25T18:48:56.333Z,8.80
2022-12-25T18:51:24.382Z,8.20
2022-12-25T18:53:52.124Z,7.95
2022-12-25T18:56:20.789Z,8.23
2022-12-25T18:58:48.662Z,8.15
2022-12-25T19:01:26.552Z,8.45
2022-12-25T19:04:00.229Z,8.23
2022-12-25T19:06:33.539Z,8.40
2022-12-25T19:09:09.429Z,8.52
2022-12-25T19:12:00.969Z,9.20
2022-12-25T19:14:28.658Z,9.60
2022-12-25T19:16:56.845Z,8.57
2022-12-25T19:19:25.012Z,10.57
2022-12-25T19:21:54.307Z,9.45
2022-12-25T19:24:22.915Z,10.23
2022-12-25T19:26:51.309Z,10.45
2022-12-25T19:29:19.021Z,10.73
2022-12-25T19:31:46.699Z,10.70
2022-12-25T19:34:14.806Z,11.70
2022-12-25T19:36:42.630Z,12.48
2022-12-25T19:39:11.695Z,12.02
